createdAt,value
2017-12-04T00:01:06.287Z,102073.52
2017-12-04T00:03:33.920Z,102078.95
2017-12-04T00:06:01.517Z,102072.48
2017-12-04T00:08:29.153Z,102075.17
2017-12-04T00:10:56.743Z,102077.82
2017-12-04T00:13:24.378Z,102083.55
2017-12-04T00:15:51.994Z,102080.47
2017-12-04T00:18:19.678Z,102074.55
2017-12-04T00:20:47.282Z,102085.16
2017-12-04T00:23:14.902Z,102072.48
2017-12-04T00:25:42.498Z,102078.81
2017-12-04T00:28:10.168Z,102087.05
2017-12-04T00:30:37.770Z,102081.42
2017-12-04T00:33:05.426Z,102086.95
2017-12-04T00:35:33.018Z,102081.14
2017-12-04T00:38:01.303Z,102083.08
2017-12-04T00:40:28.916Z,102091.09
2017-12-04T00:42:56.516Z,102094.81
2017-12-04T00:45:24.142Z,102095.72
2017-12-04T00:47:51.783Z,102091.13
2017-12-04T00:50:19.374Z,102093.92
2017-12-04T00:52:46.991Z,102089.32
2017-12-04T00:55:14.609Z,102082.78
2017-12-04T00:57:42.260Z,102081.59
2017-12-04T01:00:09.926Z,102078.11
2017-12-04T01:02:37.533Z,102085.16
2017-12-04T01:05:05.154Z,102071.57
2017-12-04T01:07:32.735Z,102075.06
2017-12-04T01:10:00.370Z,102076.64
2017-12-04T01:12:27.966Z,102087.25
2017-12-04T01:14:55.582Z,102083.69
2017-12-04T01:17:23.178Z,102086.11
2017-12-04T01:19:50.811Z,102089.32
2017-12-04T01:22:18.430Z,102090.08
2017-12-04T01:24:46.023Z,102089.41
2017-12-04T01:27:13.718Z,102088.38
2017-12-04T01:29:41.308Z,102095.52
2017-12-04T01:32:08.950Z,102100.40
2017-12-04T01:34:36.620Z,102102.80
2017-12-04T01:37:04.246Z,102105.35
2017-12-04T01:39:31.965Z,102102.51
2017-12-04T01:41:59.561Z,102104.16
2017-12-04T01:44:27.185Z,102102.55
2017-12-04T01:46:54.994Z,102098.11
2017-12-04T01:49:22.589Z,102105.02
2017-12-04T01:51:50.174Z,102107.58
2017-12-04T01:54:17.815Z,102101.72
2017-12-04T01:56:45.447Z,102098.97
2017-12-04T01:59:13.032Z,102104.02
2017-12-04T02:01:40.633Z,102108.20
2017-12-04T02:04:08.280Z,102104.51
2017-12-04T02:06:35.875Z,102104.51
2017-12-04T02:09:03.535Z,102110.23
2017-12-04T02:11:31.249Z,102107.02
2017-12-04T02:13:58.859Z,102118.01
2017-12-04T02:16:26.458Z,102124.35
2017-12-04T02:18:54.087Z,102122.73
2017-12-04T02:21:21.682Z,102124.25
2017-12-04T02:23:49.302Z,102128.70
2017-12-04T02:26:16.873Z,102119.09
2017-12-04T02:28:44.538Z,102116.48
2017-12-04T02:31:12.111Z,102123.39
2017-12-04T02:33:39.741Z,102116.62
2017-12-04T02:36:07.353Z,102121.67
2017-12-04T02:38:34.995Z,102119.31
2017-12-04T02:41:02.575Z,102121.77
2017-12-04T02:43:30.198Z,102116.08
2017-12-04T02:45:57.795Z,102114.66
2017-12-04T02:48:25.592Z,102117.08
2017-12-04T02:50:53.178Z,102105.86
2017-12-04T02:53:20.811Z,102108.55
2017-12-04T02:55:48.419Z,102110.63
2017-12-04T02:58:16.032Z,102108.55
2017-12-04T03:00:43.655Z,102104.80
2017-12-04T03:03:11.270Z,102099.36
2017-12-04T03:05:38.886Z,102099.27
2017-12-04T03:08:06.516Z,102094.87
2017-12-04T03:10:34.303Z,102094.16
2017-12-04T03:13:01.935Z,102103.34
2017-12-04T03:15:29.530Z,102097.13
2017-12-04T03:17:57.246Z,102094.97
2017-12-04T03:20:24.850Z,102094.63
2017-12-04T03:22:52.467Z,102097.67
2017-12-04T03:25:20.043Z,102096.05
2017-12-04T03:27:47.669Z,102098.74
2017-12-04T03:30:15.274Z,102091.17
2017-12-04T03:32:42.863Z,102086.97
2017-12-04T03:35:10.483Z,102092.41
2017-12-04T03:37:38.111Z,102097.52
2017-12-04T03:40:05.730Z,102101.83
2017-12-04T03:42:33.362Z,102108.63
2017-12-04T03:45:00.959Z,102114.84
2017-12-04T03:47:28.609Z,102112.31
2017-12-04T03:49:56.190Z,102123.58
2017-12-04T03:52:23.857Z,102125.33
2017-12-04T03:54:51.510Z,102121.78
2017-12-04T03:57:19.151Z,102124.84
2017-12-04T03:59:46.742Z,102130.33
2017-12-04T04:02:14.325Z,102128.25
2017-12-04T04:04:41.946Z,102126.77
2017-12-04T04:07:09.598Z,102126.09
2017-12-04T04:09:37.235Z,102119.69
2017-12-04T04:12:04.842Z,102108.98
2017-12-04T04:14:32.458Z,102112.87
2017-12-04T04:17:00.071Z,102108.73
2017-12-04T04:19:27.697Z,102105.49
2017-12-04T04:21:55.298Z,102106.02
2017-12-04T04:24:22.939Z,102106.34
2017-12-04T04:26:50.539Z,102108.34
2017-12-04T04:29:18.204Z,102105.49
2017-12-04T04:31:45.806Z,102105.49
2017-12-04T04:34:13.432Z,102107.73
2017-12-04T04:36:41.039Z,102113.97
2017-12-04T04:39:08.663Z,102114.33
2017-12-04T04:41:36.335Z,102110.45
2017-12-04T04:44:03.998Z,102121.35
2017-12-04T04:46:31.585Z,102121.39
2017-12-04T04:48:59.244Z,102119.09
2017-12-04T04:51:26.826Z,102125.92
2017-12-04T04:53:54.458Z,102125.41
2017-12-04T04:56:22.058Z,102117.86
2017-12-04T04:58:49.675Z,102123.17
2017-12-04T05:01:17.270Z,102128.37
2017-12-04T05:03:44.881Z,102129.94
2017-12-04T05:06:12.471Z,102127.67
2017-12-04T05:08:40.119Z,102121.52
2017-12-04T05:11:07.748Z,102131.42
2017-12-04T05:13:35.379Z,102128.02
2017-12-04T05:16:03.013Z,102123.66
2017-12-04T05:18:30.554Z,102126.50
2017-12-04T05:20:58.198Z,102125.41
2017-12-04T05:23:25.971Z,102131.00
2017-12-04T05:25:53.598Z,102124.37
2017-12-04T05:28:21.225Z,102124.46
2017-12-04T05:30:48.874Z,102122.81
2017-12-04T05:33:16.458Z,102130.00
2017-12-04T05:35:44.094Z,102129.94
2017-12-04T05:38:11.690Z,102135.15
2017-12-04T05:40:39.322Z,102130.68
2017-12-04T05:43:06.907Z,102136.34
2017-12-04T05:45:34.560Z,102129.39
2017-12-04T05:48:02.179Z,102132.23
2017-12-04T05:50:29.830Z,102127.86
2017-12-04T05:52:57.419Z,102132.78
2017-12-04T05:55:25.035Z,102134.41
2017-12-04T05:57:52.638Z,102135.05
2017-12-04T06:00:20.266Z,102140.98
2017-12-04T06:02:47.888Z,102142.20
2017-12-04T06:05:15.515Z,102148.39
2017-12-04T06:07:43.126Z,102155.42
2017-12-04T06:10:10.772Z,102155.42
2017-12-04T06:12:38.370Z,102157.20
2017-12-04T06:15:06.073Z,102162.12
2017-12-04T06:17:33.730Z,102162.45
2017-12-04T06:20:01.347Z,102163.64
2017-12-04T06:22:28.963Z,102158.88
2017-12-04T06:24:56.600Z,102171.05
2017-12-04T06:27:24.194Z,102172.19
2017-12-04T06:29:51.839Z,102173.36
2017-12-04T06:32:19.459Z,102166.23
2017-12-04T06:34:47.116Z,102164.80
2017-12-04T06:37:14.708Z,102173.06
2017-12-04T06:39:42.336Z,102178.80
2017-12-04T06:42:09.955Z,102187.48
2017-12-04T06:44:37.580Z,102186.05
2017-12-04T06:47:05.214Z,102188.94
2017-12-04T06:49:32.858Z,102198.45
2017-12-04T06:52:00.454Z,102196.48
2017-12-04T06:54:28.094Z,102190.78
2017-12-04T06:56:55.682Z,102196.31
2017-12-04T06:59:23.351Z,102194.02
2017-12-04T07:01:50.935Z,102206.30
2017-12-04T07:04:18.526Z,102216.59
2017-12-04T07:06:46.151Z,102214.26
2017-12-04T07:09:13.754Z,102212.67
2017-12-04T07:11:41.390Z,102217.89
2017-12-04T07:14:08.994Z,102210.86
2017-12-04T07:16:36.619Z,102211.99
2017-12-04T07:19:04.267Z,102212.64
2017-12-04T07:21:31.892Z,102211.97
2017-12-04T07:23:59.502Z,102213.42
2017-12-04T07:26:27.162Z,102220.80
2017-12-04T07:28:54.759Z,102230.49
2017-12-04T07:31:22.402Z,102233.15
2017-12-04T07:33:50.003Z,102228.32
2017-12-04T07:36:17.630Z,102238.11
2017-12-04T07:38:45.230Z,102243.66
2017-12-04T07:41:12.858Z,102243.14
2017-12-04T07:43:40.462Z,102237.41
2017-12-04T07:46:08.106Z,102243.97
2017-12-04T07:48:35.696Z,102249.58
2017-12-04T07:51:03.333Z,102251.03
2017-12-04T07:53:30.926Z,102256.86
2017-12-04T07:55:58.559Z,102251.06
2017-12-04T07:58:26.146Z,102254.63
2017-12-04T08:00:53.776Z,102262.21
2017-12-04T08:03:21.386Z,102261.92
2017-12-04T08:05:49.065Z,102268.79
2017-12-04T08:08:16.746Z,102272.35
2017-12-04T08:10:44.394Z,102267.75
2017-12-04T08:13:12.022Z,102276.56
2017-12-04T08:15:39.646Z,102282.17
2017-12-04T08:18:07.252Z,102289.62
2017-12-04T08:20:34.971Z,102285.16
2017-12-04T08:23:02.566Z,102286.32
2017-12-04T08:25:30.292Z,102281.84
2017-12-04T08:27:57.902Z,102291.05
2017-12-04T08:30:25.519Z,102287.27
2017-12-04T08:32:53.142Z,102283.70
2017-12-04T08:35:20.800Z,102292.06
2017-12-04T08:37:48.424Z,102281.27
2017-12-04T08:40:16.050Z,102285.50
2017-12-04T08:42:43.662Z,102276.42
2017-12-04T08:45:11.303Z,102274.90
2017-12-04T08:47:38.898Z,102280.56
2017-12-04T08:50:06.539Z,102291.52
2017-12-04T08:52:34.159Z,102286.75
2017-12-04T08:55:01.774Z,102290.87
2017-12-04T08:57:29.374Z,102295.64
2017-12-04T08:59:57.042Z,102289.63
2017-12-04T09:02:24.600Z,102292.62
2017-12-04T09:04:52.211Z,102291.80
2017-12-04T09:07:19.829Z,102300.00
2017-12-04T09:09:47.418Z,102297.27
2017-12-04T09:12:15.058Z,102302.17
2017-12-04T09:14:42.653Z,102305.28
2017-12-04T09:17:10.290Z,102305.05
2017-12-04T09:19:37.910Z,102307.13
2017-12-04T09:22:05.550Z,102306.94
2017-12-04T09:24:33.151Z,102318.61
2017-12-04T09:27:00.888Z,102319.29
2017-12-04T09:29:28.509Z,102317.25
2017-12-04T09:31:56.282Z,102315.63
2017-12-04T09:34:23.887Z,102321.52
2017-12-04T09:36:51.469Z,102321.62
2017-12-04T09:39:19.102Z,102333.39
2017-12-04T09:41:46.738Z,102334.00
2017-12-04T09:44:14.378Z,102337.34
2017-12-04T09:46:41.980Z,102337.14
2017-12-04T09:49:09.603Z,102337.75
2017-12-04T09:51:37.231Z,102336.25
2017-12-04T09:54:04.914Z,102340.88
2017-12-04T09:56:32.499Z,102346.33
2017-12-04T09:59:00.140Z,102341.72
2017-12-04T10:01:27.726Z,102348.57
2017-12-04T10:03:55.347Z,102352.39
2017-12-04T10:06:22.942Z,102348.55
2017-12-04T10:08:50.598Z,102351.33
2017-12-04T10:11:18.199Z,102354.66
2017-12-04T10:13:45.850Z,102351.87
2017-12-04T10:16:13.483Z,102346.74
2017-12-04T10:18:41.090Z,102347.06
2017-12-04T10:21:08.695Z,102345.55
2017-12-04T10:23:36.311Z,102345.01
2017-12-04T10:26:03.889Z,102347.25
2017-12-04T10:28:31.512Z,102350.45
2017-12-04T10:30:59.118Z,102347.81
2017-12-04T10:33:26.747Z,102356.39
2017-12-04T10:35:54.431Z,102359.98
2017-12-04T10:38:22.095Z,102361.98
2017-12-04T10:40:49.687Z,102360.66
2017-12-04T10:43:17.380Z,102366.38
2017-12-04T10:45:44.982Z,102363.73
2017-12-04T10:48:12.639Z,102367.83
2017-12-04T10:50:40.254Z,102360.98
2017-12-04T10:53:07.899Z,102353.31
2017-12-04T10:55:35.501Z,102362.23
2017-12-04T10:58:03.090Z,102364.91
2017-12-04T11:00:30.725Z,102366.84
2017-12-04T11:02:58.330Z,102364.63
2017-12-04T11:05:25.952Z,102371.77
2017-12-04T11:07:53.559Z,102369.55
2017-12-04T11:10:21.297Z,102364.42
2017-12-04T11:12:48.933Z,102362.45
2017-12-04T11:15:16.518Z,102357.02
2017-12-04T11:17:44.150Z,102357.98
2017-12-04T11:20:11.733Z,102361.89
2017-12-04T11:22:39.370Z,102366.92
2017-12-04T11:25:06.991Z,102364.05
2017-12-04T11:27:34.680Z,102366.52
2017-12-04T11:30:02.310Z,102381.59
2017-12-04T11:32:29.905Z,102376.84
2017-12-04T11:34:57.546Z,102377.35
2017-12-04T11:37:25.170Z,102376.81
2017-12-04T11:39:52.796Z,102379.67
2017-12-04T11:42:20.422Z,102387.88
2017-12-04T11:44:48.085Z,102382.56
2017-12-04T11:47:15.813Z,102381.53
2017-12-04T11:49:43.439Z,102385.73
2017-12-04T11:52:11.039Z,102383.36
2017-12-04T11:54:38.666Z,102386.64
2017-12-04T11:57:06.313Z,102386.64
2017-12-04T11:59:33.872Z,102382.34
2017-12-04T12:02:01.496Z,102384.22
2017-12-04T12:04:29.078Z,102390.16
2017-12-04T12:06:56.742Z,102389.34
2017-12-04T12:09:24.320Z,102392.22
2017-12-04T12:11:51.948Z,102392.13
2017-12-04T12:14:19.644Z,102392.24
2017-12-04T12:16:47.287Z,102392.66
2017-12-04T12:19:14.948Z,102395.94
2017-12-04T12:21:42.599Z,102392.66
2017-12-04T12:24:10.170Z,102395.84
2017-12-04T12:26:37.783Z,102391.73
2017-12-04T12:29:05.378Z,102388.38
2017-12-04T12:31:33.005Z,102388.99
2017-12-04T12:34:00.612Z,102389.52
2017-12-04T12:36:28.255Z,102385.30
2017-12-04T12:38:55.859Z,102392.37
2017-12-04T12:41:23.491Z,102394.84
2017-12-04T12:43:51.135Z,102394.96
2017-12-04T12:46:18.734Z,102384.69
2017-12-04T12:48:46.382Z,102380.20
2017-12-04T12:51:13.994Z,102382.56
2017-12-04T12:53:41.591Z,102371.09
2017-12-04T12:56:09.220Z,102384.83
2017-12-04T12:58:36.822Z,102367.72
2017-12-04T13:01:04.457Z,102370.50
2017-12-04T13:03:32.080Z,102375.31
2017-12-04T13:05:59.742Z,102383.63
2017-12-04T13:08:27.333Z,102377.99
2017-12-04T13:10:54.975Z,102378.72
2017-12-04T13:13:22.579Z,102385.16
2017-12-04T13:15:50.234Z,102374.42
2017-12-04T13:18:17.845Z,102368.56
2017-12-04T13:20:45.474Z,102370.23
2017-12-04T13:23:13.075Z,102366.45
2017-12-04T13:25:40.726Z,102368.11
2017-12-04T13:28:08.327Z,102367.06
2017-12-04T13:30:35.959Z,102368.73
2017-12-04T13:33:15.214Z,102365.37
2017-12-04T13:35:54.460Z,102370.39
2017-12-04T13:38:22.114Z,102365.67
2017-12-04T13:40:49.777Z,102359.68
2017-12-04T13:43:17.362Z,102360.09
2017-12-04T13:45:45.009Z,102361.85
2017-12-04T13:48:12.607Z,102362.47
2017-12-04T13:50:40.237Z,102363.20
2017-12-04T13:53:07.919Z,102361.56
2017-12-04T13:55:35.566Z,102358.39
2017-12-04T13:58:03.155Z,102367.73
2017-12-04T14:00:30.743Z,102365.75
2017-12-04T14:02:58.374Z,102363.88
2017-12-04T14:05:26.016Z,102367.80
2017-12-04T14:07:53.598Z,102377.73
2017-12-04T14:10:21.215Z,102385.84
2017-12-04T14:12:48.846Z,102388.08
2017-12-04T14:15:16.492Z,102394.74
2017-12-04T14:17:44.167Z,102398.14
2017-12-04T14:20:11.776Z,102396.86
2017-12-04T14:22:39.454Z,102393.28
2017-12-04T14:25:07.057Z,102396.97
2017-12-04T14:27:34.685Z,102399.78
2017-12-04T14:30:02.315Z,102405.01
2017-12-04T14:32:29.954Z,102412.48
2017-12-04T14:34:59.056Z,102416.86
2017-12-04T14:37:26.674Z,102429.77
2017-12-04T14:39:54.283Z,102427.83
2017-12-04T14:42:21.907Z,102436.64
2017-12-04T14:44:49.510Z,102436.44
2017-12-04T14:47:17.212Z,102430.89
2017-12-04T14:49:44.887Z,102430.19
2017-12-04T14:52:12.471Z,102435.67
2017-12-04T14:54:40.123Z,102442.55
2017-12-04T14:57:07.760Z,102444.80
2017-12-04T14:59:35.369Z,102440.80
2017-12-04T15:02:02.994Z,102451.47
2017-12-04T15:04:30.589Z,102450.74
2017-12-04T15:06:58.350Z,102450.45
2017-12-04T15:09:25.938Z,102449.41
2017-12-04T15:11:53.590Z,102447.81
2017-12-04T15:14:21.230Z,102454.67
2017-12-04T15:16:48.862Z,102467.08
2017-12-04T15:19:16.515Z,102464.10
2017-12-04T15:21:44.107Z,102461.16
2017-12-04T15:24:11.763Z,102467.52
2017-12-04T15:26:39.358Z,102464.74
2017-12-04T15:29:06.970Z,102462.77
2017-12-04T15:31:34.602Z,102463.72
2017-12-04T15:34:02.295Z,102474.06
2017-12-04T15:36:29.870Z,102471.39
2017-12-04T15:38:57.502Z,102481.96
2017-12-04T15:41:25.107Z,102473.84
2017-12-04T15:43:52.755Z,102478.86
2017-12-04T15:46:20.343Z,102473.22
2017-12-04T15:48:47.980Z,102476.17
2017-12-04T15:51:15.590Z,102480.09
2017-12-04T15:53:43.218Z,102481.50
2017-12-04T15:56:10.819Z,102479.36
2017-12-04T15:58:38.459Z,102483.58
2017-12-04T16:01:06.045Z,102485.91
2017-12-04T16:03:33.681Z,102485.81
2017-12-04T16:06:01.343Z,102485.22
2017-12-04T16:08:28.938Z,102496.38
2017-12-04T16:10:56.641Z,102494.33
2017-12-04T16:13:24.267Z,102494.72
2017-12-04T16:15:51.927Z,102497.70
2017-12-04T16:18:19.528Z,102500.25
2017-12-04T16:20:47.165Z,102502.08
2017-12-04T16:23:14.746Z,102508.95
2017-12-04T16:25:42.396Z,102507.72
2017-12-04T16:28:09.977Z,102512.63
2017-12-04T16:30:37.655Z,102513.66
2017-12-04T16:33:05.250Z,102512.41
2017-12-04T16:35:32.888Z,102509.62
2017-12-04T16:38:00.463Z,102513.72
2017-12-04T16:40:28.198Z,102513.59
2017-12-04T16:42:55.787Z,102515.47
2017-12-04T16:45:23.393Z,102517.03
2017-12-04T16:47:50.971Z,102520.72
2017-12-04T16:50:18.603Z,102524.41
2017-12-04T16:52:46.219Z,102530.16
2017-12-04T16:55:13.857Z,102536.72
2017-12-04T16:57:41.510Z,102537.14
2017-12-04T17:00:09.136Z,102543.61
2017-12-04T17:02:36.734Z,102542.37
2017-12-04T17:05:04.343Z,102543.23
2017-12-04T17:07:31.976Z,102545.38
2017-12-04T17:09:59.583Z,102546.13
2017-12-04T17:12:27.200Z,102560.47
2017-12-04T17:14:54.795Z,102565.60
2017-12-04T17:17:22.390Z,102565.09
2017-12-04T17:19:50.027Z,102563.50
2017-12-04T17:22:17.629Z,102571.92
2017-12-04T17:24:45.319Z,102569.53
2017-12-04T17:27:12.963Z,102564.94
2017-12-04T17:29:40.646Z,102581.84
2017-12-04T17:32:08.293Z,102591.70
2017-12-04T17:34:35.893Z,102584.72
2017-12-04T17:37:03.549Z,102588.00
2017-12-04T17:39:31.180Z,102590.47
2017-12-04T17:41:58.843Z,102592.09
2017-12-04T17:44:26.442Z,102593.72
2017-12-04T17:46:54.090Z,102595.87
2017-12-04T17:49:21.721Z,102601.82
2017-12-04T17:51:49.364Z,102600.59
2017-12-04T17:54:16.950Z,102610.44
2017-12-04T17:56:44.573Z,102605.20
2017-12-04T17:59:12.186Z,102608.39
2017-12-04T18:01:39.847Z,102607.23
2017-12-04T18:04:07.462Z,102605.41
2017-12-04T18:06:35.103Z,102615.25
2017-12-04T18:09:02.792Z,102613.70
2017-12-04T18:11:30.450Z,102619.84
2017-12-04T18:13:58.025Z,102621.67
2017-12-04T18:16:25.671Z,102623.64
2017-12-04T18:18:53.266Z,102627.55
2017-12-04T18:21:20.898Z,102632.36
2017-12-04T18:23:48.499Z,102635.77
2017-12-04T18:26:16.157Z,102635.45
2017-12-04T18:28:43.747Z,102630.41
2017-12-04T18:31:11.469Z,102640.23
2017-12-04T18:33:39.096Z,102638.70
2017-12-04T18:36:06.745Z,102643.32
2017-12-04T18:38:34.365Z,102645.76
2017-12-04T18:41:02.098Z,102649.27
2017-12-04T18:43:29.740Z,102648.23
2017-12-04T18:45:57.438Z,102652.10
2017-12-04T18:48:25.239Z,102652.01
2017-12-04T18:50:52.880Z,102654.48
2017-12-04T18:53:20.488Z,102652.01
2017-12-04T18:55:48.128Z,102660.00
2017-12-04T18:58:15.749Z,102663.51
2017-12-04T19:00:43.381Z,102661.75
2017-12-04T19:03:10.977Z,102662.50
2017-12-04T19:05:38.612Z,102664.62
2017-12-04T19:08:06.415Z,102671.51
2017-12-04T19:10:34.067Z,102669.95
2017-12-04T19:13:01.762Z,102667.19
2017-12-04T19:15:29.411Z,102670.98
2017-12-04T19:17:57.011Z,102669.16
2017-12-04T19:20:24.646Z,102672.74
2017-12-04T19:22:52.251Z,102673.06
2017-12-04T19:25:19.878Z,102670.17
2017-12-04T19:27:47.545Z,102677.66
2017-12-04T19:30:15.185Z,102673.27
2017-12-04T19:32:42.840Z,102679.19
2017-12-04T19:35:10.526Z,102681.36
2017-12-04T19:37:38.205Z,102681.75
2017-12-04T19:40:05.841Z,102685.52
2017-12-04T19:42:33.445Z,102684.03
2017-12-04T19:45:01.142Z,102687.08
2017-12-04T19:47:28.736Z,102686.14
2017-12-04T19:49:56.495Z,102687.05
2017-12-04T19:52:24.169Z,102686.92
2017-12-04T19:54:51.830Z,102692.36
2017-12-04T19:57:19.500Z,102690.63
2017-12-04T19:59:47.131Z,102690.76
2017-12-04T20:02:14.751Z,102693.49
2017-12-04T20:04:42.349Z,102703.38
2017-12-04T20:07:10.135Z,102702.56
2017-12-04T20:09:37.886Z,102699.80
2017-12-04T20:12:05.587Z,102704.37
2017-12-04T20:14:33.191Z,102703.56
2017-12-04T20:17:00.899Z,102714.52
2017-12-04T20:19:28.512Z,102712.77
2017-12-04T20:21:56.191Z,102713.39
2017-12-04T20:24:23.935Z,102718.63
2017-12-04T20:26:51.659Z,102724.44
2017-12-04T20:29:19.324Z,102723.30
2017-12-04T20:31:46.982Z,102723.01
2017-12-04T20:34:14.633Z,102728.11
2017-12-04T20:36:42.307Z,102734.39
2017-12-04T20:39:09.971Z,102736.53
2017-12-04T20:41:37.646Z,102740.11
2017-12-04T20:44:05.295Z,102740.82
2017-12-04T20:46:32.964Z,102738.03
2017-12-04T20:49:00.591Z,102742.45
2017-12-04T20:51:28.210Z,102747.45
2017-12-04T20:53:55.831Z,102744.07
2017-12-04T20:56:23.446Z,102742.91
2017-12-04T20:58:51.088Z,102741.27
2017-12-04T21:01:18.843Z,102746.38
2017-12-04T21:03:46.475Z,102743.84
2017-12-04T21:06:14.135Z,102747.94
2017-12-04T21:08:53.487Z,102751.38
2017-12-04T21:11:32.716Z,102749.11
2017-12-04T21:14:12.053Z,102753.50
2017-12-04T21:16:51.322Z,102750.73
2017-12-04T21:19:19.036Z,102755.55
2017-12-04T21:21:46.641Z,102760.03
2017-12-04T21:24:14.284Z,102761.62
2017-12-04T21:26:41.911Z,102764.80
2017-12-04T21:29:09.554Z,102765.71
2017-12-04T21:31:37.147Z,102772.99
2017-12-04T21:34:04.847Z,102774.42
2017-12-04T21:36:32.572Z,102765.91
2017-12-04T21:39:00.186Z,102775.33
2017-12-04T21:41:27.865Z,102774.71
2017-12-04T21:43:55.475Z,102784.13
2017-12-04T21:46:23.116Z,102790.95
2017-12-04T21:48:50.727Z,102790.70
2017-12-04T21:51:18.342Z,102797.23
2017-12-04T21:53:45.978Z,102790.95
2017-12-04T21:56:13.671Z,102790.31
2017-12-04T21:58:41.263Z,102787.42
2017-12-04T22:01:08.927Z,102798.59
2017-12-04T22:03:36.582Z,102794.89
2017-12-04T22:06:04.274Z,102802.66
2017-12-04T22:08:31.886Z,102806.03
2017-12-04T22:10:59.487Z,102805.51
2017-12-04T22:13:27.126Z,102806.61
2017-12-04T22:15:54.709Z,102809.05
2017-12-04T22:18:22.322Z,102812.17
2017-12-04T22:20:49.899Z,102819.64
2017-12-04T22:23:17.538Z,102823.51
2017-12-04T22:25:45.149Z,102831.69
2017-12-04T22:28:12.837Z,102833.64
2017-12-04T22:30:40.434Z,102827.79
2017-12-04T22:33:08.042Z,102824.84
2017-12-04T22:35:35.676Z,102827.08
2017-12-04T22:38:03.446Z,102823.70
2017-12-04T22:40:31.043Z,102831.13
2017-12-04T22:42:58.671Z,102822.89
2017-12-04T22:45:26.248Z,102828.60
2017-12-04T22:47:53.873Z,102829.26
2017-12-04T22:50:21.456Z,102832.02
2017-12-04T22:52:49.071Z,102833.93
2017-12-04T22:55:16.771Z,102834.78
2017-12-04T22:57:44.401Z,102831.92
2017-12-04T23:00:12.115Z,102830.94
2017-12-04T23:02:39.696Z,102823.70
2017-12-04T23:05:07.334Z,102826.03
2017-12-04T23:07:34.931Z,102819.05
2017-12-04T23:10:02.567Z,102829.61
2017-12-04T23:12:30.174Z,102831.59
2017-12-04T23:14:57.827Z,102836.88
2017-12-04T23:17:25.419Z,102841.20
2017-12-04T23:19:53.067Z,102847.97
2017-12-04T23:22:20.649Z,102849.69
2017-12-04T23:24:48.291Z,102855.49
2017-12-04T23:27:15.899Z,102852.45
2017-12-04T23:29:43.537Z,102849.97
2017-12-04T23:32:11.116Z,102850.77
2017-12-04T23:34:38.764Z,102857.02
2017-12-04T23:37:06.374Z,102859.92
2017-12-04T23:39:34.005Z,102857.83
2017-12-04T23:42:01.590Z,102864.69
2017-12-04T23:44:29.226Z,102858.68
2017-12-04T23:46:56.825Z,102862.86
2017-12-04T23:49:24.518Z,102868.96
2017-12-04T23:51:52.134Z,102867.16
2017-12-04T23:54:21.474Z,102866.95
2017-12-04T23:56:49.086Z,102871.20
2017-12-04T23:59:16.724Z,102867.40
